sensor_id;sensor_type;location;lat;lon;timestamp;pressure;altitude;pressure_sealevel;temperature;humidity
3150;BME280;32503;47.748;8.960;2023-11-18T00:00:47;97803.22;;;7.38;75.01
3150;BME280;32503;47.748;8.960;2023-11-18T00:03:14;97801.44;;;7.33;74.67
3150;BME280;32503;47.748;8.960;2023-11-18T00:05:41;97811.16;;;7.43;74.26
3150;BME280;32503;47.748;8.960;2023-11-18T00:08:10;97802.09;;;7.39;74.88
3150;BME280;32503;47.748;8.960;2023-11-18T00:10:37;97797.38;;;7.36;74.81
3150;BME280;32503;47.748;8.960;2023-11-18T00:13:04;97806.03;;;7.33;74.65
3150;BME280;32503;47.748;8.960;2023-11-18T00:15:31;97799.25;;;7.35;74.54
3150;BME280;32503;47.748;8.960;2023-11-18T00:18:01;97799.34;;;7.62;74.54
3150;BME280;32503;47.748;8.960;2023-11-18T00:20:28;97795.97;;;8.13;74.80
3150;BME280;32503;47.748;8.960;2023-11-18T00:22:56;97791.22;;;8.02;73.62
3150;BME280;32503;47.748;8.960;2023-11-18T00:25:25;97787.56;;;7.89;72.87
3150;BME280;32503;47.748;8.960;2023-11-18T00:27:52;97782.63;;;7.73;72.87
3150;BME280;32503;47.748;8.960;2023-11-18T00:30:20;97778.47;;;7.67;73.07
3150;BME280;32503;47.748;8.960;2023-11-18T00:32:47;97785.41;;;7.59;72.74
3150;BME280;32503;47.748;8.960;2023-11-18T00:35:14;97782.53;;;7.47;73.08
3150;BME280;32503;47.748;8.960;2023-11-18T00:37:41;97784.41;;;7.38;73.03
3150;BME280;32503;47.748;8.960;2023-11-18T00:40:09;97775.00;;;7.27;73.24
3150;BME280;32503;47.748;8.960;2023-11-18T00:42:38;97773.56;;;7.20;73.27
3150;BME280;32503;47.748;8.960;2023-11-18T00:45:06;97778.09;;;7.11;72.66
3150;BME280;32503;47.748;8.960;2023-11-18T00:47:34;97780.63;;;7.08;72.52
3150;BME280;32503;47.748;8.960;2023-11-18T00:50:01;97781.22;;;7.05;72.70
3150;BME280;32503;47.748;8.960;2023-11-18T00:52:29;97796.38;;;7.00;72.60
3150;BME280;32503;47.748;8.960;2023-11-18T00:54:56;97794.44;;;6.92;72.88
3150;BME280;32503;47.748;8.960;2023-11-18T00:57:23;97800.72;;;6.88;72.76
3150;BME280;32503;47.748;8.960;2023-11-18T00:59:51;97793.09;;;6.81;72.78
3150;BME280;32503;47.748;8.960;2023-11-18T01:02:18;97793.53;;;6.74;73.18
3150;BME280;32503;47.748;8.960;2023-11-18T01:04:45;97790.16;;;6.69;72.86
3150;BME280;32503;47.748;8.960;2023-11-18T01:07:12;97796.59;;;6.59;73.45
3150;BME280;32503;47.748;8.960;2023-11-18T01:09:39;97800.47;;;6.53;73.51
3150;BME280;32503;47.748;8.960;2023-11-18T01:12:07;97817.41;;;6.53;73.82
3150;BME280;32503;47.748;8.960;2023-11-18T01:14:36;97811.47;;;6.42;73.69
3150;BME280;32503;47.748;8.960;2023-11-18T01:17:05;97815.06;;;6.38;73.52
3150;BME280;32503;47.748;8.960;2023-11-18T01:19:32;97822.94;;;6.34;74.10
3150;BME280;32503;47.748;8.960;2023-11-18T01:22:00;97816.59;;;6.30;74.39
3150;BME280;32503;47.748;8.960;2023-11-18T01:24:30;97819.28;;;6.30;73.65
3150;BME280;32503;47.748;8.960;2023-11-18T01:26:57;97815.47;;;6.31;73.99
3150;BME280;32503;47.748;8.960;2023-11-18T01:29:25;97816.59;;;6.30;74.26
3150;BME280;32503;47.748;8.960;2023-11-18T01:31:52;97821.97;;;6.30;74.42
3150;BME280;32503;47.748;8.960;2023-11-18T01:34:22;97822.75;;;6.31;74.47
3150;BME280;32503;47.748;8.960;2023-11-18T01:36:49;97816.25;;;6.32;74.51
3150;BME280;32503;47.748;8.960;2023-11-18T01:39:17;97793.53;;;6.15;74.67
3150;BME280;32503;47.748;8.960;2023-11-18T01:41:44;97828.38;;;6.43;74.28
3150;BME280;32503;47.748;8.960;2023-11-18T01:44:11;97830.78;;;6.44;74.91
3150;BME280;32503;47.748;8.960;2023-11-18T01:46:41;97836.75;;;6.41;74.92
3150;BME280;32503;47.748;8.960;2023-11-18T01:49:11;97845.09;;;6.40;74.02
3150;BME280;32503;47.748;8.960;2023-11-18T01:51:41;97843.00;;;6.37;74.80
3150;BME280;32503;47.748;8.960;2023-11-18T01:54:08;97845.09;;;6.40;74.50
3150;BME280;32503;47.748;8.960;2023-11-18T01:56:39;97851.16;;;6.45;73.93
3150;BME280;32503;47.748;8.960;2023-11-18T01:59:06;97857.00;;;6.48;74.07
3150;BME280;32503;47.748;8.960;2023-11-18T02:01:36;97842.78;;;6.47;73.59
3150;BME280;32503;47.748;8.960;2023-11-18T02:04:05;97839.63;;;6.45;74.05
3150;BME280;32503;47.748;8.960;2023-11-18T02:06:33;97845.28;;;6.43;73.82
3150;BME280;32503;47.748;8.960;2023-11-18T02:09:03;97836.13;;;6.44;74.14
3150;BME280;32503;47.748;8.960;2023-11-18T02:11:36;97823.91;;;6.38;73.08
3150;BME280;32503;47.748;8.960;2023-11-18T02:14:08;97818.06;;;6.36;73.57
3150;BME280;32503;47.748;8.960;2023-11-18T02:16:43;97822.44;;;6.32;73.80
3150;BME280;32503;47.748;8.960;2023-11-18T02:19:21;97814.19;;;6.29;72.95
3150;BME280;32503;47.748;8.960;2023-11-18T02:21:49;97782.59;;;6.12;73.61
3150;BME280;32503;47.748;8.960;2023-11-18T02:24:35;97805.78;;;6.21;73.25
3150;BME280;32503;47.748;8.960;2023-11-18T02:27:05;97814.91;;;6.20;73.33
3150;BME280;32503;47.748;8.960;2023-11-18T02:29:34;97803.41;;;6.06;72.95
3150;BME280;32503;47.748;8.960;2023-11-18T02:32:11;97804.09;;;6.12;73.50
3150;BME280;32503;47.748;8.960;2023-11-18T02:34:58;97801.69;;;6.10;72.67
3150;BME280;32503;47.748;8.960;2023-11-18T02:37:31;97806.38;;;6.04;73.09
3150;BME280;32503;47.748;8.960;2023-11-18T02:40:04;97806.50;;;5.99;73.29
3150;BME280;32503;47.748;8.960;2023-11-18T02:42:36;97800.94;;;5.96;72.66
3150;BME280;32503;47.748;8.960;2023-11-18T02:45:06;97809.53;;;5.93;73.29
3150;BME280;32503;47.748;8.960;2023-11-18T02:47:34;97810.03;;;5.95;72.75
3150;BME280;32503;47.748;8.960;2023-11-18T02:50:01;97822.19;;;5.92;73.53
3150;BME280;32503;47.748;8.960;2023-11-18T02:52:36;97814.22;;;5.87;73.57
3150;BME280;32503;47.748;8.960;2023-11-18T02:55:05;97811.56;;;5.87;73.23
3150;BME280;32503;47.748;8.960;2023-11-18T02:57:35;97779.06;;;5.61;73.75
3150;BME280;32503;47.748;8.960;2023-11-18T03:00:02;97808.66;;;5.83;73.08
3150;BME280;32503;47.748;8.960;2023-11-18T03:02:30;97816.44;;;5.85;73.23
3150;BME280;32503;47.748;8.960;2023-11-18T03:04:57;97772.13;;;5.60;73.08
3150;BME280;32503;47.748;8.960;2023-11-18T03:07:25;97804.72;;;5.81;73.72
3150;BME280;32503;47.748;8.960;2023-11-18T03:09:52;97798.97;;;5.74;73.24
3150;BME280;32503;47.748;8.960;2023-11-18T03:12:22;97809.16;;;5.72;73.33
3150;BME280;32503;47.748;8.960;2023-11-18T03:14:50;97805.50;;;5.67;73.62
3150;BME280;32503;47.748;8.960;2023-11-18T03:17:17;97804.53;;;5.63;73.75
3150;BME280;32503;47.748;8.960;2023-11-18T03:19:45;97806.72;;;5.61;73.37
3150;BME280;32503;47.748;8.960;2023-11-18T03:22:12;97811.06;;;5.57;73.11
3150;BME280;32503;47.748;8.960;2023-11-18T03:24:39;97810.06;;;5.53;73.47
3150;BME280;32503;47.748;8.960;2023-11-18T03:27:08;97809.59;;;5.51;73.25
3150;BME280;32503;47.748;8.960;2023-11-18T03:29:35;97805.88;;;5.47;73.26
3150;BME280;32503;47.748;8.960;2023-11-18T03:32:05;97792.59;;;5.42;73.53
3150;BME280;32503;47.748;8.960;2023-11-18T03:34:32;97799.03;;;5.41;73.77
3150;BME280;32503;47.748;8.960;2023-11-18T03:36:59;97792.69;;;5.37;73.42
3150;BME280;32503;47.748;8.960;2023-11-18T03:39:26;97790.59;;;5.34;73.09
3150;BME280;32503;47.748;8.960;2023-11-18T03:41:53;97796.53;;;5.30;73.23
3150;BME280;32503;47.748;8.960;2023-11-18T03:44:22;97792.59;;;5.28;73.66
3150;BME280;32503;47.748;8.960;2023-11-18T03:46:50;97788.59;;;5.25;73.84
3150;BME280;32503;47.748;8.960;2023-11-18T03:49:19;97789.19;;;5.22;73.69
3150;BME280;32503;47.748;8.960;2023-11-18T03:51:46;97791.06;;;5.22;73.37
3150;BME280;32503;47.748;8.960;2023-11-18T03:54:13;97799.13;;;5.22;73.02
3150;BME280;32503;47.748;8.960;2023-11-18T03:56:41;97809.06;;;5.21;72.93
3150;BME280;32503;47.748;8.960;2023-11-18T03:59:08;97811.72;;;5.21;73.55
3150;BME280;32503;47.748;8.960;2023-11-18T04:01:35;97810.94;;;5.21;73.46
3150;BME280;32503;47.748;8.960;2023-11-18T04:04:02;97809.06;;;5.21;73.48
3150;BME280;32503;47.748;8.960;2023-11-18T04:06:31;97805.25;;;5.22;73.11
3150;BME280;32503;47.748;8.960;2023-11-18T04:08:58;97814.81;;;5.28;73.45
3150;BME280;32503;47.748;8.960;2023-11-18T04:11:25;97818.50;;;5.32;73.63
3150;BME280;32503;47.748;8.960;2023-11-18T04:13:52;97812.06;;;5.34;73.57
3150;BME280;32503;47.748;8.960;2023-11-18T04:16:19;97806.09;;;5.37;73.63
3150;BME280;32503;47.748;8.960;2023-11-18T04:18:46;97806.09;;;5.37;73.47
3150;BME280;32503;47.748;8.960;2023-11-18T04:21:13;97803.09;;;5.38;74.04
3150;BME280;32503;47.748;8.960;2023-11-18T04:23:43;97800.94;;;5.40;74.18
3150;BME280;32503;47.748;8.960;2023-11-18T04:26:12;97809.06;;;5.35;73.94
3150;BME280;32503;47.748;8.960;2023-11-18T04:28:39;97809.97;;;5.44;73.50
3150;BME280;32503;47.748;8.960;2023-11-18T04:31:06;97817.63;;;5.37;74.48
3150;BME280;32503;47.748;8.960;2023-11-18T04:33:33;97826.25;;;5.34;73.83
3150;BME280;32503;47.748;8.960;2023-11-18T04:36:00;97821.78;;;5.29;73.82
3150;BME280;32503;47.748;8.960;2023-11-18T04:38:28;97817.78;;;5.27;74.43
3150;BME280;32503;47.748;8.960;2023-11-18T04:40:58;97807.84;;;5.27;74.71
3150;BME280;32503;47.748;8.960;2023-11-18T04:43:25;97809.66;;;5.32;75.17
3150;BME280;32503;47.748;8.960;2023-11-18T04:45:52;97812.84;;;5.34;74.68
3150;BME280;32503;47.748;8.960;2023-11-18T04:48:20;97804.69;;;5.25;74.32
3150;BME280;32503;47.748;8.960;2023-11-18T04:50:47;97820.09;;;5.34;74.65
3150;BME280;32503;47.748;8.960;2023-11-18T04:53:14;97812.44;;;5.27;75.46
3150;BME280;32503;47.748;8.960;2023-11-18T04:55:41;97820.28;;;5.23;75.11
3150;BME280;32503;47.748;8.960;2023-11-18T04:58:10;97819.28;;;5.19;74.98
3150;BME280;32503;47.748;8.960;2023-11-18T05:00:37;97821.66;;;5.21;75.13
3150;BME280;32503;47.748;8.960;2023-11-18T05:03:04;97810.94;;;5.21;75.19
3150;BME280;32503;47.748;8.960;2023-11-18T05:05:35;97816.00;;;5.22;74.89
3150;BME280;32503;47.748;8.960;2023-11-18T05:08:03;97817.31;;;5.25;75.22
3150;BME280;32503;47.748;8.960;2023-11-18T05:10:32;97818.91;;;5.26;74.33
3150;BME280;32503;47.748;8.960;2023-11-18T05:12:59;97824.97;;;5.31;74.32
3150;BME280;32503;47.748;8.960;2023-11-18T05:15:28;97815.31;;;5.30;74.79
3150;BME280;32503;47.748;8.960;2023-11-18T05:17:55;97807.44;;;5.20;75.15
3150;BME280;32503;47.748;8.960;2023-11-18T05:20:23;97803.97;;;5.20;74.89
3150;BME280;32503;47.748;8.960;2023-11-18T05:22:50;97811.34;;;5.28;74.62
3150;BME280;32503;47.748;8.960;2023-11-18T05:25:17;97799.91;;;5.22;75.02
3150;BME280;32503;47.748;8.960;2023-11-18T05:27:45;97793.56;;;5.18;74.80
3150;BME280;32503;47.748;8.960;2023-11-18T05:30:12;97797.34;;;5.17;75.00
3150;BME280;32503;47.748;8.960;2023-11-18T05:32:41;97804.56;;;5.17;75.50
3150;BME280;32503;47.748;8.960;2023-11-18T05:35:08;97796.31;;;5.13;75.68
3150;BME280;32503;47.748;8.960;2023-11-18T05:37:37;97790.56;;;5.06;74.67
3150;BME280;32503;47.748;8.960;2023-11-18T05:40:07;97797.91;;;5.14;75.34
3150;BME280;32503;47.748;8.960;2023-11-18T05:42:36;97807.44;;;5.20;75.36
3150;BME280;32503;47.748;8.960;2023-11-18T05:45:08;97807.16;;;5.22;75.68
3150;BME280;32503;47.748;8.960;2023-11-18T05:47:46;97809.06;;;5.21;75.66
3150;BME280;32503;47.748;8.960;2023-11-18T05:50:13;97811.44;;;5.23;75.85
3150;BME280;32503;47.748;8.960;2023-11-18T05:52:41;97808.66;;;5.28;74.94
3150;BME280;32503;47.748;8.960;2023-11-18T05:55:08;97812.75;;;5.39;74.47
3150;BME280;32503;47.748;8.960;2023-11-18T05:57:36;97796.75;;;5.34;74.48
3150;BME280;32503;47.748;8.960;2023-11-18T06:00:05;97792.09;;;5.26;75.27
3150;BME280;32503;47.748;8.960;2023-11-18T06:02:34;97792.97;;;5.21;74.78
3150;BME280;32503;47.748;8.960;2023-11-18T06:05:07;97793.75;;;5.22;75.13
3150;BME280;32503;47.748;8.960;2023-11-18T06:07:35;97798.22;;;5.12;75.13
3150;BME280;32503;47.748;8.960;2023-11-18T06:10:02;97792.56;;;5.14;75.13
3150;BME280;32503;47.748;8.960;2023-11-18T06:12:31;97793.72;;;5.08;74.78
3150;BME280;32503;47.748;8.960;2023-11-18T06:14:58;97787.59;;;5.07;75.29
3150;BME280;32503;47.748;8.960;2023-11-18T06:17:25;97785.69;;;5.08;75.08
3150;BME280;32503;47.748;8.960;2023-11-18T06:19:53;97798.91;;;5.18;75.17
3150;BME280;32503;47.748;8.960;2023-11-18T06:22:25;97798.59;;;5.06;75.22
3150;BME280;32503;47.748;8.960;2023-11-18T06:24:52;97799.09;;;5.08;74.58
3150;BME280;32503;47.748;8.960;2023-11-18T06:27:19;97799.28;;;5.11;75.02
3150;BME280;32503;47.748;8.960;2023-11-18T06:29:49;97768.88;;;4.88;75.19
3150;BME280;32503;47.748;8.960;2023-11-18T06:32:20;97801.31;;;5.20;75.64
3150;BME280;32503;47.748;8.960;2023-11-18T06:34:47;97803.69;;;5.21;75.43
3150;BME280;32503;47.748;8.960;2023-11-18T06:37:15;97805.56;;;5.07;75.23
3150;BME280;32503;47.748;8.960;2023-11-18T06:39:44;97802.19;;;5.01;75.57
3150;BME280;32503;47.748;8.960;2023-11-18T06:42:13;97794.84;;;5.07;75.53
3150;BME280;32503;47.748;8.960;2023-11-18T06:44:40;97808.84;;;5.18;76.01
3150;BME280;32503;47.748;8.960;2023-11-18T06:47:07;97807.75;;;5.32;75.78
3150;BME280;32503;47.748;8.960;2023-11-18T06:49:34;97807.69;;;5.38;75.50
3150;BME280;32503;47.748;8.960;2023-11-18T06:52:03;97814.63;;;5.39;75.17
3150;BME280;32503;47.748;8.960;2023-11-18T06:54:30;97812.44;;;5.41;75.04
3150;BME280;32503;47.748;8.960;2023-11-18T06:57:00;97815.13;;;5.41;75.34
3150;BME280;32503;47.748;8.960;2023-11-18T06:59:27;97821.47;;;5.45;75.35
3150;BME280;32503;47.748;8.960;2023-11-18T07:01:54;97820.50;;;5.41;75.63
3150;BME280;32503;47.748;8.960;2023-11-18T07:04:21;97832.13;;;5.50;76.03
3150;BME280;32503;47.748;8.960;2023-11-18T07:06:49;97832.31;;;5.54;75.88
3150;BME280;32503;47.748;8.960;2023-11-18T07:09:16;97827.44;;;5.56;75.31
3150;BME280;32503;47.748;8.960;2023-11-18T07:11:46;97827.78;;;5.54;75.77
3150;BME280;32503;47.748;8.960;2023-11-18T07:14:15;97819.31;;;5.61;75.15
3150;BME280;32503;47.748;8.960;2023-11-18T07:16:43;97823.00;;;5.65;75.14
3150;BME280;32503;47.748;8.960;2023-11-18T07:19:10;97824.78;;;5.69;75.82
3150;BME280;32503;47.748;8.960;2023-11-18T07:21:43;97827.44;;;5.69;75.07
3150;BME280;32503;47.748;8.960;2023-11-18T07:24:10;97823.28;;;5.77;75.79
3150;BME280;32503;47.748;8.960;2023-11-18T07:26:37;97816.53;;;5.80;75.34
3150;BME280;32503;47.748;8.960;2023-11-18T07:29:04;97829.34;;;5.83;75.47
3150;BME280;32503;47.748;8.960;2023-11-18T07:31:34;97834.13;;;5.86;75.18
3150;BME280;32503;47.748;8.960;2023-11-18T07:34:03;97830.53;;;5.91;74.67
3150;BME280;32503;47.748;8.960;2023-11-18T07:36:31;97833.41;;;5.94;74.62
3150;BME280;32503;47.748;8.960;2023-11-18T07:38:58;97835.22;;;5.99;74.96
3150;BME280;32503;47.748;8.960;2023-11-18T07:41:26;97836.50;;;6.01;75.44
3150;BME280;32503;47.748;8.960;2023-11-18T07:43:54;97808.28;;;5.90;75.17
3150;BME280;32503;47.748;8.960;2023-11-18T07:46:22;97831.97;;;6.02;74.41
3150;BME280;32503;47.748;8.960;2023-11-18T07:48:51;97834.72;;;6.83;77.77
3150;BME280;32503;47.748;8.960;2023-11-18T07:51:19;97826.28;;;6.99;75.42
3150;BME280;32503;47.748;8.960;2023-11-18T07:53:47;97818.09;;;6.81;74.54
3150;BME280;32503;47.748;8.960;2023-11-18T07:56:14;97823.00;;;6.79;74.61
3150;BME280;32503;47.748;8.960;2023-11-18T07:58:42;97828.47;;;6.74;73.88
3150;BME280;32503;47.748;8.960;2023-11-18T08:01:11;97802.19;;;6.49;74.22
3150;BME280;32503;47.748;8.960;2023-11-18T08:03:39;97838.97;;;6.62;73.89
3150;BME280;32503;47.748;8.960;2023-11-18T08:06:11;97835.00;;;6.59;73.87
3150;BME280;32503;47.748;8.960;2023-11-18T08:08:38;97812.56;;;6.41;74.12
3150;BME280;32503;47.748;8.960;2023-11-18T08:11:06;97833.41;;;6.58;74.65
3150;BME280;32503;47.748;8.960;2023-11-18T08:13:34;97844.84;;;6.64;74.68
3150;BME280;32503;47.748;8.960;2023-11-18T08:16:01;97838.22;;;6.70;74.07
3150;BME280;32503;47.748;8.960;2023-11-18T08:18:28;97825.44;;;6.67;74.35
3150;BME280;32503;47.748;8.960;2023-11-18T08:20:56;97832.97;;;6.65;74.74
3150;BME280;32503;47.748;8.960;2023-11-18T08:23:27;97827.91;;;6.63;74.84
3150;BME280;32503;47.748;8.960;2023-11-18T08:25:55;97834.94;;;6.73;74.93
3150;BME280;32503;47.748;8.960;2023-11-18T08:28:22;97833.22;;;6.77;73.91
3150;BME280;32503;47.748;8.960;2023-11-18T08:30:49;97817.84;;;6.69;73.97
3150;BME280;32503;47.748;8.960;2023-11-18T08:33:17;97838.84;;;6.90;74.72
3150;BME280;32503;47.748;8.960;2023-11-18T08:35:44;97831.13;;;6.97;73.79
3150;BME280;32503;47.748;8.960;2023-11-18T08:38:12;97833.59;;;7.07;74.16
3150;BME280;32503;47.748;8.960;2023-11-18T08:40:40;97832.66;;;7.12;74.44
3150;BME280;32503;47.748;8.960;2023-11-18T08:43:08;97833.94;;;7.14;73.74
3150;BME280;32503;47.748;8.960;2023-11-18T08:45:37;97833.34;;;7.17;73.89
3150;BME280;32503;47.748;8.960;2023-11-18T08:48:04;97820.53;;;7.23;74.49
3150;BME280;32503;47.748;8.960;2023-11-18T08:50:34;97819.44;;;7.24;74.68
3150;BME280;32503;47.748;8.960;2023-11-18T08:53:02;97815.03;;;7.28;74.64
3150;BME280;32503;47.748;8.960;2023-11-18T08:55:32;97808.91;;;7.36;74.51
3150;BME280;32503;47.748;8.960;2023-11-18T08:58:07;97807.34;;;7.44;74.12
3150;BME280;32503;47.748;8.960;2023-11-18T09:00:46;97815.16;;;7.54;74.01
3150;BME280;32503;47.748;8.960;2023-11-18T09:03:14;97823.72;;;7.56;74.24
3150;BME280;32503;47.748;8.960;2023-11-18T09:05:51;97820.88;;;7.62;74.48
3150;BME280;32503;47.748;8.960;2023-11-18T09:08:31;97822.31;;;7.59;74.70
3150;BME280;32503;47.748;8.960;2023-11-18T09:11:01;97825.66;;;7.65;74.44
3150;BME280;32503;47.748;8.960;2023-11-18T09:13:33;97822.66;;;7.66;74.30
3150;BME280;32503;47.748;8.960;2023-11-18T09:16:02;97820.13;;;7.70;74.48
3150;BME280;32503;47.748;8.960;2023-11-18T09:18:30;97809.84;;;7.72;73.96
3150;BME280;32503;47.748;8.960;2023-11-18T09:20:59;97771.97;;;7.59;73.94
3150;BME280;32503;47.748;8.960;2023-11-18T09:23:28;97786.09;;;7.83;73.58
3150;BME280;32503;47.748;8.960;2023-11-18T09:25:57;97782.00;;;7.85;73.23
3150;BME280;32503;47.748;8.960;2023-11-18T09:28:26;97779.31;;;7.94;73.16
3150;BME280;32503;47.748;8.960;2023-11-18T09:30:56;97781.25;;;8.02;73.01
3150;BME280;32503;47.748;8.960;2023-11-18T09:33:26;97770.47;;;8.11;72.95
3150;BME280;32503;47.748;8.960;2023-11-18T09:35:55;97780.00;;;8.17;72.67
3150;BME280;32503;47.748;8.960;2023-11-18T09:38:26;97783.66;;;8.21;72.41
3150;BME280;32503;47.748;8.960;2023-11-18T09:41:00;97784.75;;;8.20;72.45
3150;BME280;32503;47.748;8.960;2023-11-18T09:43:29;97792.97;;;8.24;72.24
3150;BME280;32503;47.748;8.960;2023-11-18T09:46:05;97808.38;;;8.32;72.30
3150;BME280;32503;47.748;8.960;2023-11-18T09:48:44;97796.00;;;8.40;72.19
3150;BME280;32503;47.748;8.960;2023-11-18T09:51:21;97792.88;;;8.55;71.33
3150;BME280;32503;47.748;8.960;2023-11-18T09:53:51;97804.44;;;8.64;71.42
3150;BME280;32503;47.748;8.960;2023-11-18T09:56:27;97803.00;;;8.76;71.70
3150;BME280;32503;47.748;8.960;2023-11-18T09:59:10;97796.94;;;8.96;71.21
3150;BME280;32503;47.748;8.960;2023-11-18T10:01:43;97798.97;;;9.08;70.98
3150;BME280;32503;47.748;8.960;2023-11-18T10:04:12;97787.53;;;9.20;70.28
3150;BME280;32503;47.748;8.960;2023-11-18T10:06:44;97787.81;;;9.27;70.28
3150;BME280;32503;47.748;8.960;2023-11-18T10:09:15;97784.94;;;9.32;69.78
3150;BME280;32503;47.748;8.960;2023-11-18T10:11:47;97790.19;;;9.37;69.45
3150;BME280;32503;47.748;8.960;2023-11-18T10:14:14;97774.78;;;9.29;68.44
3150;BME280;32503;47.748;8.960;2023-11-18T10:16:44;97771.97;;;9.17;68.47
3150;BME280;32503;47.748;8.960;2023-11-18T10:19:13;97783.56;;;9.17;68.33
3150;BME280;32503;47.748;8.960;2023-11-18T10:21:43;97774.50;;;9.22;68.13
3150;BME280;32503;47.748;8.960;2023-11-18T10:24:15;97782.44;;;9.27;68.55
3150;BME280;32503;47.748;8.960;2023-11-18T10:26:46;97784.50;;;9.30;68.78
3150;BME280;32503;47.748;8.960;2023-11-18T10:29:21;97780.94;;;9.38;68.68
3150;BME280;32503;47.748;8.960;2023-11-18T10:31:51;97781.91;;;9.42;68.61
3150;BME280;32503;47.748;8.960;2023-11-18T10:34:29;97789.66;;;9.44;68.88
3150;BME280;32503;47.748;8.960;2023-11-18T10:37:01;97774.13;;;9.41;68.92
3150;BME280;32503;47.748;8.960;2023-11-18T10:39:32;97784.41;;;9.47;68.36
3150;BME280;32503;47.748;8.960;2023-11-18T10:42:01;97783.63;;;9.47;68.70
3150;BME280;32503;47.748;8.960;2023-11-18T10:44:28;97770.78;;;9.35;68.65
3150;BME280;32503;47.748;8.960;2023-11-18T10:46:57;97776.66;;;9.46;68.06
3150;BME280;32503;47.748;8.960;2023-11-18T10:49:27;97783.13;;;9.54;68.91
3150;BME280;32503;47.748;8.960;2023-11-18T10:51:55;97781.53;;;9.53;68.07
3150;BME280;32503;47.748;8.960;2023-11-18T10:54:23;97779.25;;;9.63;67.54
3150;BME280;32503;47.748;8.960;2023-11-18T10:56:52;97787.47;;;9.67;67.95
3150;BME280;32503;47.748;8.960;2023-11-18T10:59:22;97789.22;;;9.72;67.93
3150;BME280;32503;47.748;8.960;2023-11-18T11:01:49;97788.72;;;9.78;67.32
3150;BME280;32503;47.748;8.960;2023-11-18T11:04:18;97785.69;;;9.80;66.87
3150;BME280;32503;47.748;8.960;2023-11-18T11:06:47;97770.91;;;9.77;67.27
3150;BME280;32503;47.748;8.960;2023-11-18T11:09:19;97778.84;;;9.82;67.19
3150;BME280;32503;47.748;8.960;2023-11-18T11:11:54;97777.25;;;9.81;67.01
3150;BME280;32503;47.748;8.960;2023-11-18T11:14:27;97787.13;;;9.77;66.43
3150;BME280;32503;47.748;8.960;2023-11-18T11:17:06;97786.78;;;9.79;66.45
3150;BME280;32503;47.748;8.960;2023-11-18T11:19:50;97790.44;;;9.83;66.48
3150;BME280;32503;47.748;8.960;2023-11-18T11:22:24;97779.66;;;9.83;66.27
3150;BME280;32503;47.748;8.960;2023-11-18T11:25:07;97780.69;;;9.91;66.32
3150;BME280;32503;47.748;8.960;2023-11-18T11:27:44;97763.44;;;9.83;65.95
3150;BME280;32503;47.748;8.960;2023-11-18T11:30:22;97771.06;;;9.81;66.66
3150;BME280;32503;47.748;8.960;2023-11-18T11:32:52;97784.66;;;9.93;65.76
3150;BME280;32503;47.748;8.960;2023-11-18T11:35:27;97784.31;;;9.95;65.28
3150;BME280;32503;47.748;8.960;2023-11-18T11:37:57;97770.81;;;9.95;65.63
3150;BME280;32503;47.748;8.960;2023-11-18T11:40:30;97781.09;;;10.01;65.53
3150;BME280;32503;47.748;8.960;2023-11-18T11:42:58;97776.50;;;10.02;65.13
3150;BME280;32503;47.748;8.960;2023-11-18T11:45:30;97767.94;;;10.00;66.08
3150;BME280;32503;47.748;8.960;2023-11-18T11:48:00;97768.97;;;10.07;65.30
3150;BME280;32503;47.748;8.960;2023-11-18T11:51:07;97766.44;;;10.11;65.48
3150;BME280;32503;47.748;8.960;2023-11-18T11:53:45;97763.88;;;10.15;65.90
3150;BME280;32503;47.748;8.960;2023-11-18T11:56:14;97755.41;;;10.16;64.91
3150;BME280;32503;47.748;8.960;2023-11-18T11:58:47;97738.94;;;10.09;65.70
3150;BME280;32503;47.748;8.960;2023-11-18T12:01:25;97736.72;;;10.11;65.58
3150;BME280;32503;47.748;8.960;2023-11-18T12:03:56;97731.16;;;10.07;65.90
3150;BME280;32503;47.748;8.960;2023-11-18T12:06:27;97740.41;;;10.28;65.69
3150;BME280;32503;47.748;8.960;2023-11-18T12:08:54;97742.44;;;10.31;65.28
3150;BME280;32503;47.748;8.960;2023-11-18T12:11:23;97732.56;;;10.35;64.80
3150;BME280;32503;47.748;8.960;2023-11-18T12:14:05;97723.25;;;10.44;65.29
3150;BME280;32503;47.748;8.960;2023-11-18T12:17:02;97728.00;;;10.48;65.39
3150;BME280;32503;47.748;8.960;2023-11-18T12:19:38;97707.91;;;10.36;64.99
3150;BME280;32503;47.748;8.960;2023-11-18T12:22:14;97721.16;;;10.50;64.75
3150;BME280;32503;47.748;8.960;2023-11-18T12:25:31;97712.22;;;10.50;64.71
3150;BME280;32503;47.748;8.960;2023-11-18T12:28:10;97710.34;;;10.50;64.73
3150;BME280;32503;47.748;8.960;2023-11-18T12:30:45;97707.84;;;10.45;64.20
3150;BME280;32503;47.748;8.960;2023-11-18T12:34:00;97692.69;;;10.32;63.68
3150;BME280;32503;47.748;8.960;2023-11-18T12:36:59;97702.03;;;10.13;63.75
3150;BME280;32503;47.748;8.960;2023-11-18T12:43:01;97713.91;;;10.00;64.77
3150;BME280;32503;47.748;8.960;2023-11-18T12:46:25;97710.28;;;9.96;65.47
3150;BME280;32503;47.748;8.960;2023-11-18T12:49:03;97711.38;;;9.95;66.25
3150;BME280;32503;47.748;8.960;2023-11-18T12:51:32;97692.41;;;9.82;66.76
3150;BME280;32503;47.748;8.960;2023-11-18T12:54:03;97701.91;;;9.89;66.13
3150;BME280;32503;47.748;8.960;2023-11-18T12:56:32;97697.81;;;9.82;67.37
3150;BME280;32503;47.748;8.960;2023-11-18T12:59:01;97711.31;;;9.82;67.33
3150;BME280;32503;47.748;8.960;2023-11-18T13:01:32;97709.66;;;9.69;67.01
3150;BME280;32503;47.748;8.960;2023-11-18T13:04:01;97706.22;;;9.60;67.77
3150;BME280;32503;47.748;8.960;2023-11-18T13:06:29;97707.53;;;9.54;67.49
3150;BME280;32503;47.748;8.960;2023-11-18T13:08:56;97706.88;;;9.57;68.12
3150;BME280;32503;47.748;8.960;2023-11-18T13:11:24;97711.78;;;9.55;67.98
3150;BME280;32503;47.748;8.960;2023-11-18T13:13:51;97700.94;;;9.42;68.00
3150;BME280;32503;47.748;8.960;2023-11-18T13:16:20;97717.13;;;9.42;67.80
3150;BME280;32503;47.748;8.960;2023-11-18T13:18:48;97706.97;;;9.39;68.78
3150;BME280;32503;47.748;8.960;2023-11-18T13:21:17;97703.00;;;9.37;68.60
3150;BME280;32503;47.748;8.960;2023-11-18T13:23:48;97698.41;;;9.37;68.50
3150;BME280;32503;47.748;8.960;2023-11-18T13:26:19;97691.25;;;9.41;68.08
3150;BME280;32503;47.748;8.960;2023-11-18T13:28:47;97690.91;;;9.43;67.65
3150;BME280;32503;47.748;8.960;2023-11-18T13:31:15;97679.34;;;9.42;68.65
3150;BME280;32503;47.748;8.960;2023-11-18T13:33:44;97675.88;;;9.33;68.50
3150;BME280;32503;47.748;8.960;2023-11-18T13:36:14;97689.50;;;9.37;69.15
3150;BME280;32503;47.748;8.960;2023-11-18T13:38:41;97679.03;;;9.35;68.33
3150;BME280;32503;47.748;8.960;2023-11-18T13:41:10;97682.69;;;9.39;68.86